sensor_id;sensor_type;location;lat;lon;timestamp;temperature;humidity
24636;DHT22;12772;49.794;10.024;2023-09-19T00:03:55;20.40;54.70
24636;DHT22;12772;49.794;10.024;2023-09-19T00:07:58;20.40;55.00
24636;DHT22;12772;49.794;10.024;2023-09-19T00:12:00;20.40;55.50
24636;DHT22;12772;49.794;10.024;2023-09-19T00:16:08;20.30;55.40
24636;DHT22;12772;49.794;10.024;2023-09-19T00:20:11;20.30;55.40
24636;DHT22;12772;49.794;10.024;2023-09-19T00:24:14;20.30;55.40
24636;DHT22;12772;49.794;10.024;2023-09-19T00:28:18;20.30;55.40
24636;DHT22;12772;49.794;10.024;2023-09-19T00:32:20;20.20;55.20
24636;DHT22;12772;49.794;10.024;2023-09-19T00:36:22;20.20;55.20
24636;DHT22;12772;49.794;10.024;2023-09-19T00:40:24;20.20;55.20
24636;DHT22;12772;49.794;10.024;2023-09-19T00:44:27;20.10;55.20
24636;DHT22;12772;49.794;10.024;2023-09-19T00:48:30;20.00;55.60
24636;DHT22;12772;49.794;10.024;2023-09-19T00:52:33;20.00;56.20
24636;DHT22;12772;49.794;10.024;2023-09-19T00:56:37;19.90;56.60
24636;DHT22;12772;49.794;10.024;2023-09-19T01:00:41;19.90;57.10
24636;DHT22;12772;49.794;10.024;2023-09-19T01:04:45;19.90;57.40
24636;DHT22;12772;49.794;10.024;2023-09-19T01:08:47;20.00;57.50
24636;DHT22;12772;49.794;10.024;2023-09-19T01:17:22;19.90;57.50
24636;DHT22;12772;49.794;10.024;2023-09-19T01:29:48;19.90;58.20
24636;DHT22;12772;49.794;10.024;2023-09-19T01:33:56;19.90;58.50
24636;DHT22;12772;49.794;10.024;2023-09-19T01:37:59;19.90;58.60
24636;DHT22;12772;49.794;10.024;2023-09-19T01:42:47;19.80;58.90
24636;DHT22;12772;49.794;10.024;2023-09-19T01:46:41;19.80;59.10
24636;DHT22;12772;49.794;10.024;2023-09-19T01:51:02;19.80;59.30
24636;DHT22;12772;49.794;10.024;2023-09-19T01:55:09;19.90;59.30
24636;DHT22;12772;49.794;10.024;2023-09-19T01:59:23;19.90;59.40
24636;DHT22;12772;49.794;10.024;2023-09-19T02:03:28;19.90;59.40
24636;DHT22;12772;49.794;10.024;2023-09-19T02:07:31;19.80;59.60
24636;DHT22;12772;49.794;10.024;2023-09-19T02:11:33;19.80;59.90
24636;DHT22;12772;49.794;10.024;2023-09-19T02:15:35;19.80;60.10
24636;DHT22;12772;49.794;10.024;2023-09-19T02:19:38;19.80;60.40
24636;DHT22;12772;49.794;10.024;2023-09-19T02:23:41;19.80;60.40
24636;DHT22;12772;49.794;10.024;2023-09-19T02:27:43;19.80;60.70
24636;DHT22;12772;49.794;10.024;2023-09-19T02:31:45;19.80;60.90
24636;DHT22;12772;49.794;10.024;2023-09-19T02:35:48;19.80;61.00
24636;DHT22;12772;49.794;10.024;2023-09-19T02:39:51;19.80;61.20
24636;DHT22;12772;49.794;10.024;2023-09-19T02:43:53;19.80;61.20
24636;DHT22;12772;49.794;10.024;2023-09-19T02:47:55;19.80;61.20
24636;DHT22;12772;49.794;10.024;2023-09-19T02:51:58;19.80;61.30
24636;DHT22;12772;49.794;10.024;2023-09-19T02:56:00;19.80;61.50
24636;DHT22;12772;49.794;10.024;2023-09-19T03:00:04;19.80;61.50
24636;DHT22;12772;49.794;10.024;2023-09-19T03:04:06;19.80;61.50
24636;DHT22;12772;49.794;10.024;2023-09-19T03:08:09;19.80;61.70
24636;DHT22;12772;49.794;10.024;2023-09-19T03:12:11;19.80;61.90
24636;DHT22;12772;49.794;10.024;2023-09-19T03:16:17;19.80;62.20
24636;DHT22;12772;49.794;10.024;2023-09-19T03:20:19;19.80;62.60
24636;DHT22;12772;49.794;10.024;2023-09-19T03:24:22;19.70;63.30
24636;DHT22;12772;49.794;10.024;2023-09-19T03:28:24;19.70;64.10
24636;DHT22;12772;49.794;10.024;2023-09-19T03:32:27;19.60;64.80
24636;DHT22;12772;49.794;10.024;2023-09-19T03:36:29;19.60;65.40
24636;DHT22;12772;49.794;10.024;2023-09-19T03:40:31;19.60;65.40
24636;DHT22;12772;49.794;10.024;2023-09-19T03:44:33;19.60;65.40
24636;DHT22;12772;49.794;10.024;2023-09-19T03:48:35;19.60;65.90
24636;DHT22;12772;49.794;10.024;2023-09-19T03:52:37;19.60;66.00
24636;DHT22;12772;49.794;10.024;2023-09-19T03:56:39;19.60;66.20
24636;DHT22;12772;49.794;10.024;2023-09-19T04:00:41;19.60;66.60
24636;DHT22;12772;49.794;10.024;2023-09-19T04:04:43;19.60;67.30
24636;DHT22;12772;49.794;10.024;2023-09-19T04:08:45;19.50;67.70
24636;DHT22;12772;49.794;10.024;2023-09-19T04:12:54;19.40;68.00
24636;DHT22;12772;49.794;10.024;2023-09-19T04:16:57;19.40;68.30
24636;DHT22;12772;49.794;10.024;2023-09-19T04:20:59;19.40;68.40
24636;DHT22;12772;49.794;10.024;2023-09-19T04:25:03;19.50;68.50
24636;DHT22;12772;49.794;10.024;2023-09-19T04:29:07;19.50;68.40
24636;DHT22;12772;49.794;10.024;2023-09-19T04:33:11;19.50;68.30
24636;DHT22;12772;49.794;10.024;2023-09-19T04:37:15;19.40;68.00
24636;DHT22;12772;49.794;10.024;2023-09-19T04:41:17;19.40;67.80
24636;DHT22;12772;49.794;10.024;2023-09-19T04:45:19;19.40;67.80
24636;DHT22;12772;49.794;10.024;2023-09-19T04:49:21;19.40;67.60
24636;DHT22;12772;49.794;10.024;2023-09-19T04:53:23;19.30;67.40
24636;DHT22;12772;49.794;10.024;2023-09-19T04:57:25;19.30;67.00
24636;DHT22;12772;49.794;10.024;2023-09-19T05:01:28;19.30;67.00
24636;DHT22;12772;49.794;10.024;2023-09-19T05:05:30;19.20;67.20
24636;DHT22;12772;49.794;10.024;2023-09-19T05:09:33;19.20;67.00
24636;DHT22;12772;49.794;10.024;2023-09-19T05:13:35;19.20;67.00
24636;DHT22;12772;49.794;10.024;2023-09-19T05:17:37;19.10;67.40
24636;DHT22;12772;49.794;10.024;2023-09-19T05:21:39;19.10;66.80
24636;DHT22;12772;49.794;10.024;2023-09-19T05:25:41;19.10;66.80
24636;DHT22;12772;49.794;10.024;2023-09-19T05:29:44;19.10;66.80
24636;DHT22;12772;49.794;10.024;2023-09-19T05:33:46;19.10;66.90
24636;DHT22;12772;49.794;10.024;2023-09-19T05:37:51;19.10;67.00
24636;DHT22;12772;49.794;10.024;2023-09-19T05:41:53;19.00;67.00
24636;DHT22;12772;49.794;10.024;2023-09-19T05:45:55;19.10;67.00
24636;DHT22;12772;49.794;10.024;2023-09-19T05:49:57;19.10;66.90
24636;DHT22;12772;49.794;10.024;2023-09-19T05:54:00;19.10;67.00
24636;DHT22;12772;49.794;10.024;2023-09-19T05:58:02;19.10;67.10
24636;DHT22;12772;49.794;10.024;2023-09-19T06:02:04;19.10;67.10
24636;DHT22;12772;49.794;10.024;2023-09-19T06:06:07;19.10;67.00
24636;DHT22;12772;49.794;10.024;2023-09-19T06:10:10;19.20;67.00
24636;DHT22;12772;49.794;10.024;2023-09-19T06:14:12;19.20;66.80
24636;DHT22;12772;49.794;10.024;2023-09-19T06:18:14;19.20;66.40
24636;DHT22;12772;49.794;10.024;2023-09-19T06:22:20;19.20;65.90
24636;DHT22;12772;49.794;10.024;2023-09-19T06:26:22;19.20;65.90
24636;DHT22;12772;49.794;10.024;2023-09-19T06:30:24;19.30;65.80
24636;DHT22;12772;49.794;10.024;2023-09-19T06:34:27;19.30;65.30
24636;DHT22;12772;49.794;10.024;2023-09-19T06:38:29;19.40;65.20
24636;DHT22;12772;49.794;10.024;2023-09-19T06:42:31;19.50;65.30
24636;DHT22;12772;49.794;10.024;2023-09-19T06:46:33;19.50;65.30
24636;DHT22;12772;49.794;10.024;2023-09-19T06:50:35;19.50;65.30
24636;DHT22;12772;49.794;10.024;2023-09-19T06:54:37;19.50;65.30
24636;DHT22;12772;49.794;10.024;2023-09-19T06:58:40;19.50;64.90
24636;DHT22;12772;49.794;10.024;2023-09-19T07:02:45;19.50;64.20
24636;DHT22;12772;49.794;10.024;2023-09-19T07:06:50;19.50;64.10
24636;DHT22;12772;49.794;10.024;2023-09-19T07:10:52;19.50;63.80
24636;DHT22;12772;49.794;10.024;2023-09-19T07:14:55;19.60;63.70
24636;DHT22;12772;49.794;10.024;2023-09-19T07:18:57;19.60;63.60
24636;DHT22;12772;49.794;10.024;2023-09-19T07:22:59;19.60;63.70
24636;DHT22;12772;49.794;10.024;2023-09-19T07:27:02;19.70;63.70
24636;DHT22;12772;49.794;10.024;2023-09-19T07:31:06;19.80;62.90
24636;DHT22;12772;49.794;10.024;2023-09-19T07:35:09;19.90;62.70
24636;DHT22;12772;49.794;10.024;2023-09-19T07:39:13;19.90;61.60
24636;DHT22;12772;49.794;10.024;2023-09-19T07:43:15;20.00;60.70
24636;DHT22;12772;49.794;10.024;2023-09-19T07:47:19;20.10;59.90
24636;DHT22;12772;49.794;10.024;2023-09-19T07:51:21;20.10;59.00
24636;DHT22;12772;49.794;10.024;2023-09-19T07:55:23;20.10;58.70
24636;DHT22;12772;49.794;10.024;2023-09-19T07:59:26;20.20;57.70
24636;DHT22;12772;49.794;10.024;2023-09-19T08:03:28;20.10;57.00
24636;DHT22;12772;49.794;10.024;2023-09-19T08:07:30;20.20;55.30
24636;DHT22;12772;49.794;10.024;2023-09-19T08:11:32;20.10;55.10
24636;DHT22;12772;49.794;10.024;2023-09-19T08:15:34;20.10;55.10
24636;DHT22;12772;49.794;10.024;2023-09-19T08:19:36;20.10;55.10
24636;DHT22;12772;49.794;10.024;2023-09-19T08:23:42;20.10;55.20
24636;DHT22;12772;49.794;10.024;2023-09-19T08:27:46;20.10;55.10
24636;DHT22;12772;49.794;10.024;2023-09-19T08:31:49;20.10;55.10
24636;DHT22;12772;49.794;10.024;2023-09-19T08:35:51;20.10;55.20
24636;DHT22;12772;49.794;10.024;2023-09-19T08:39:53;20.20;55.20
24636;DHT22;12772;49.794;10.024;2023-09-19T08:43:59;20.20;55.20
24636;DHT22;12772;49.794;10.024;2023-09-19T08:48:24;20.30;54.00
24636;DHT22;12772;49.794;10.024;2023-09-19T08:52:42;20.40;52.70
24636;DHT22;12772;49.794;10.024;2023-09-19T08:56:45;20.50;51.80
24636;DHT22;12772;49.794;10.024;2023-09-19T09:00:50;20.50;52.10
24636;DHT22;12772;49.794;10.024;2023-09-19T09:04:54;20.60;50.40
24636;DHT22;12772;49.794;10.024;2023-09-19T09:08:57;20.60;50.00
24636;DHT22;12772;49.794;10.024;2023-09-19T09:12:59;20.60;50.10
24636;DHT22;12772;49.794;10.024;2023-09-19T09:17:01;20.70;48.70
24636;DHT22;12772;49.794;10.024;2023-09-19T09:21:04;20.70;48.50
24636;DHT22;12772;49.794;10.024;2023-09-19T09:25:06;20.80;48.80
24636;DHT22;12772;49.794;10.024;2023-09-19T09:29:09;20.90;47.90
24636;DHT22;12772;49.794;10.024;2023-09-19T09:33:12;21.00;46.20
24636;DHT22;12772;49.794;10.024;2023-09-19T09:37:16;21.10;44.80
24636;DHT22;12772;49.794;10.024;2023-09-19T09:41:22;21.10;44.50
24636;DHT22;12772;49.794;10.024;2023-09-19T09:45:38;21.20;44.10
24636;DHT22;12772;49.794;10.024;2023-09-19T09:49:49;21.30;42.70
24636;DHT22;12772;49.794;10.024;2023-09-19T09:54:14;21.20;42.60
24636;DHT22;12772;49.794;10.024;2023-09-19T09:58:17;21.20;42.50
24636;DHT22;12772;49.794;10.024;2023-09-19T10:02:24;21.10;42.40
24636;DHT22;12772;49.794;10.024;2023-09-19T10:06:40;21.20;42.50
24636;DHT22;12772;49.794;10.024;2023-09-19T10:10:49;21.20;42.50
24636;DHT22;12772;49.794;10.024;2023-09-19T10:15:05;21.20;42.60
24636;DHT22;12772;49.794;10.024;2023-09-19T10:19:09;21.30;41.50
24636;DHT22;12772;49.794;10.024;2023-09-19T10:23:12;21.40;41.00
24636;DHT22;12772;49.794;10.024;2023-09-19T10:27:14;21.40;41.00
24636;DHT22;12772;49.794;10.024;2023-09-19T10:31:19;21.40;38.70
24636;DHT22;12772;49.794;10.024;2023-09-19T10:35:22;21.30;37.50
24636;DHT22;12772;49.794;10.024;2023-09-19T10:39:25;21.40;37.10
24636;DHT22;12772;49.794;10.024;2023-09-19T10:43:30;21.50;37.30
24636;DHT22;12772;49.794;10.024;2023-09-19T10:47:33;21.70;36.00
24636;DHT22;12772;49.794;10.024;2023-09-19T10:51:41;21.90;36.20
24636;DHT22;12772;49.794;10.024;2023-09-19T10:55:58;22.00;37.10
24636;DHT22;12772;49.794;10.024;2023-09-19T11:00:05;22.20;37.50
24636;DHT22;12772;49.794;10.024;2023-09-19T11:04:34;22.40;37.60
24636;DHT22;12772;49.794;10.024;2023-09-19T11:09:02;22.70;37.10
24636;DHT22;12772;49.794;10.024;2023-09-19T11:17:37;23.20;35.00
24636;DHT22;12772;49.794;10.024;2023-09-19T11:21:42;23.30;34.10
24636;DHT22;12772;49.794;10.024;2023-09-19T11:25:55;23.50;33.20
24636;DHT22;12772;49.794;10.024;2023-09-19T11:30:26;23.60;33.10
24636;DHT22;12772;49.794;10.024;2023-09-19T11:34:40;23.70;32.90
24636;DHT22;12772;49.794;10.024;2023-09-19T11:42:49;23.90;32.20
24636;DHT22;12772;49.794;10.024;2023-09-19T11:46:55;23.80;31.10
24636;DHT22;12772;49.794;10.024;2023-09-19T11:50:59;23.70;31.00
24636;DHT22;12772;49.794;10.024;2023-09-19T11:55:08;23.60;30.80
24636;DHT22;12772;49.794;10.024;2023-09-19T11:59:12;23.50;30.70
24636;DHT22;12772;49.794;10.024;2023-09-19T12:03:22;23.60;30.80
24636;DHT22;12772;49.794;10.024;2023-09-19T12:07:25;23.60;30.00
24636;DHT22;12772;49.794;10.024;2023-09-19T12:11:29;23.60;29.90
24636;DHT22;12772;49.794;10.024;2023-09-19T12:15:34;23.50;29.70
24636;DHT22;12772;49.794;10.024;2023-09-19T12:19:49;23.50;30.80
24636;DHT22;12772;49.794;10.024;2023-09-19T12:23:59;23.50;30.70
24636;DHT22;12772;49.794;10.024;2023-09-19T12:28:01;23.50;30.70
24636;DHT22;12772;49.794;10.024;2023-09-19T12:32:03;23.70;31.00
24636;DHT22;12772;49.794;10.024;2023-09-19T12:36:23;23.80;31.30
24636;DHT22;12772;49.794;10.024;2023-09-19T12:40:30;24.00;29.60
24636;DHT22;12772;49.794;10.024;2023-09-19T12:44:35;24.10;29.60
24636;DHT22;12772;49.794;10.024;2023-09-19T12:48:37;24.10;30.00
24636;DHT22;12772;49.794;10.024;2023-09-19T12:52:46;24.20;30.10
24636;DHT22;12772;49.794;10.024;2023-09-19T12:56:49;24.20;29.80
24636;DHT22;12772;49.794;10.024;2023-09-19T13:00:51;24.20;29.20
24636;DHT22;12772;49.794;10.024;2023-09-19T13:04:54;24.20;28.70
24636;DHT22;12772;49.794;10.024;2023-09-19T13:09:10;24.30;28.00
24636;DHT22;12772;49.794;10.024;2023-09-19T13:13:25;24.30;28.10
24636;DHT22;12772;49.794;10.024;2023-09-19T13:17:45;24.50;27.00
24636;DHT22;12772;49.794;10.024;2023-09-19T13:21:49;24.50;26.60
24636;DHT22;12772;49.794;10.024;2023-09-19T13:25:52;24.60;27.00
24636;DHT22;12772;49.794;10.024;2023-09-19T13:29:53;24.80;27.20
24636;DHT22;12772;49.794;10.024;2023-09-19T13:33:55;25.00;27.20
24636;DHT22;12772;49.794;10.024;2023-09-19T13:37:58;25.10;26.90
24636;DHT22;12772;49.794;10.024;2023-09-19T13:42:00;25.20;27.30
24636;DHT22;12772;49.794;10.024;2023-09-19T13:46:04;25.30;26.40
24636;DHT22;12772;49.794;10.024;2023-09-19T13:50:08;25.30;26.60
24636;DHT22;12772;49.794;10.024;2023-09-19T13:54:10;25.30;26.40
24636;DHT22;12772;49.794;10.024;2023-09-19T13:58:13;25.30;26.40
24636;DHT22;12772;49.794;10.024;2023-09-19T14:02:15;25.30;26.40
24636;DHT22;12772;49.794;10.024;2023-09-19T14:06:19;25.30;26.40
24636;DHT22;12772;49.794;10.024;2023-09-19T14:10:21;25.30;26.40
24636;DHT22;12772;49.794;10.024;2023-09-19T14:14:23;25.20;26.30
24636;DHT22;12772;49.794;10.024;2023-09-19T14:18:25;25.20;26.30
24636;DHT22;12772;49.794;10.024;2023-09-19T14:22:27;25.10;26.30
24636;DHT22;12772;49.794;10.024;2023-09-19T14:26:29;25.10;26.30
24636;DHT22;12772;49.794;10.024;2023-09-19T14:30:32;25.20;26.30
24636;DHT22;12772;49.794;10.024;2023-09-19T14:34:34;25.20;26.30
24636;DHT22;12772;49.794;10.024;2023-09-19T14:38:38;25.20;26.90
24636;DHT22;12772;49.794;10.024;2023-09-19T14:42:40;25.20;26.70
24636;DHT22;12772;49.794;10.024;2023-09-19T14:46:42;25.10;26.90
24636;DHT22;12772;49.794;10.024;2023-09-19T14:50:45;25.00;26.90
24636;DHT22;12772;49.794;10.024;2023-09-19T14:54:51;24.90;27.10
24636;DHT22;12772;49.794;10.024;2023-09-19T14:58:53;24.70;27.10
24636;DHT22;12772;49.794;10.024;2023-09-19T15:02:55;24.60;27.30
24636;DHT22;12772;49.794;10.024;2023-09-19T15:06:58;24.50;27.60
24636;DHT22;12772;49.794;10.024;2023-09-19T15:11:04;24.40;27.90
24636;DHT22;12772;49.794;10.024;2023-09-19T15:15:06;24.30;28.20
24636;DHT22;12772;49.794;10.024;2023-09-19T15:19:09;24.20;28.30
24636;DHT22;12772;49.794;10.024;2023-09-19T15:23:11;24.10;28.40
24636;DHT22;12772;49.794;10.024;2023-09-19T15:27:13;24.00;28.90
24636;DHT22;12772;49.794;10.024;2023-09-19T15:31:17;23.90;28.90
24636;DHT22;12772;49.794;10.024;2023-09-19T15:35:19;23.90;29.20
24636;DHT22;12772;49.794;10.024;2023-09-19T15:39:22;23.90;29.40
24636;DHT22;12772;49.794;10.024;2023-09-19T15:43:24;23.90;29.60
24636;DHT22;12772;49.794;10.024;2023-09-19T15:47:26;23.90;29.70
24636;DHT22;12772;49.794;10.024;2023-09-19T15:51:30;23.90;29.80
24636;DHT22;12772;49.794;10.024;2023-09-19T15:55:32;23.90;30.00
24636;DHT22;12772;49.794;10.024;2023-09-19T15:59:40;23.90;30.60
24636;DHT22;12772;49.794;10.024;2023-09-19T16:03:49;23.90;30.00
24636;DHT22;12772;49.794;10.024;2023-09-19T16:07:53;23.80;30.60
24636;DHT22;12772;49.794;10.024;2023-09-19T16:11:55;23.80;30.70
24636;DHT22;12772;49.794;10.024;2023-09-19T16:15:57;23.70;30.90
24636;DHT22;12772;49.794;10.024;2023-09-19T16:19:59;23.70;31.00
24636;DHT22;12772;49.794;10.024;2023-09-19T16:24:01;23.70;31.00
24636;DHT22;12772;49.794;10.024;2023-09-19T16:28:03;23.70;31.00
24636;DHT22;12772;49.794;10.024;2023-09-19T16:32:06;23.70;31.00
24636;DHT22;12772;49.794;10.024;2023-09-19T16:36:09;23.70;31.00
24636;DHT22;12772;49.794;10.024;2023-09-19T16:40:11;23.60;30.80
24636;DHT22;12772;49.794;10.024;2023-09-19T16:44:13;23.60;30.80
24636;DHT22;12772;49.794;10.024;2023-09-19T16:48:16;23.50;30.80
24636;DHT22;12772;49.794;10.024;2023-09-19T16:52:18;23.50;31.30
24636;DHT22;12772;49.794;10.024;2023-09-19T16:56:20;23.40;31.60
24636;DHT22;12772;49.794;10.024;2023-09-19T17:00:22;23.40;31.70
24636;DHT22;12772;49.794;10.024;2023-09-19T17:04:26;23.30;32.00
24636;DHT22;12772;49.794;10.024;2023-09-19T17:08:30;23.30;32.20
24636;DHT22;12772;49.794;10.024;2023-09-19T17:12:32;23.20;32.10
24636;DHT22;12772;49.794;10.024;2023-09-19T17:16:34;23.10;32.50
24636;DHT22;12772;49.794;10.024;2023-09-19T17:20:41;23.00;32.90
24636;DHT22;12772;49.794;10.024;2023-09-19T17:24:43;23.00;33.10
24636;DHT22;12772;49.794;10.024;2023-09-19T17:28:47;23.00;33.20
24636;DHT22;12772;49.794;10.024;2023-09-19T17:32:49;22.90;33.20
24636;DHT22;12772;49.794;10.024;2023-09-19T17:36:51;22.80;33.30
24636;DHT22;12772;49.794;10.024;2023-09-19T17:40:53;22.80;33.60
24636;DHT22;12772;49.794;10.024;2023-09-19T17:44:55;22.70;33.80
24636;DHT22;12772;49.794;10.024;2023-09-19T17:48:58;22.70;34.00
24636;DHT22;12772;49.794;10.024;2023-09-19T17:53:00;22.60;34.10
24636;DHT22;12772;49.794;10.024;2023-09-19T17:57:02;22.50;34.30
24636;DHT22;12772;49.794;10.024;2023-09-19T18:01:14;22.40;34.80
24636;DHT22;12772;49.794;10.024;2023-09-19T18:05:18;22.40;35.70
24636;DHT22;12772;49.794;10.024;2023-09-19T18:09:22;22.30;35.10
24636;DHT22;12772;49.794;10.024;2023-09-19T18:13:24;22.30;35.50
24636;DHT22;12772;49.794;10.024;2023-09-19T18:17:26;22.20;35.60
24636;DHT22;12772;49.794;10.024;2023-09-19T18:21:28;22.20;35.80
24636;DHT22;12772;49.794;10.024;2023-09-19T18:25:30;22.20;35.90
24636;DHT22;12772;49.794;10.024;2023-09-19T18:29:33;22.10;36.20
24636;DHT22;12772;49.794;10.024;2023-09-19T18:33:35;22.10;36.40
24636;DHT22;12772;49.794;10.024;2023-09-19T18:37:37;22.10;36.50
24636;DHT22;12772;49.794;10.024;2023-09-19T18:41:39;22.00;36.30
24636;DHT22;12772;49.794;10.024;2023-09-19T18:45:41;22.00;36.30
24636;DHT22;12772;49.794;10.024;2023-09-19T18:49:44;21.90;36.50
24636;DHT22;12772;49.794;10.024;2023-09-19T18:53:49;21.90;36.60
24636;DHT22;12772;49.794;10.024;2023-09-19T18:57:52;21.90;36.90
24636;DHT22;12772;49.794;10.024;2023-09-19T19:01:54;21.80;37.10
24636;DHT22;12772;49.794;10.024;2023-09-19T19:05:56;21.80;37.40
24636;DHT22;12772;49.794;10.024;2023-09-19T19:09:59;21.70;37.50
24636;DHT22;12772;49.794;10.024;2023-09-19T19:14:03;21.70;37.70
24636;DHT22;12772;49.794;10.024;2023-09-19T19:18:05;21.60;37.90
24636;DHT22;12772;49.794;10.024;2023-09-19T19:22:07;21.60;38.00
24636;DHT22;12772;49.794;10.024;2023-09-19T19:26:10;21.60;38.30
24636;DHT22;12772;49.794;10.024;2023-09-19T19:30:12;21.50;38.30
24636;DHT22;12772;49.794;10.024;2023-09-19T19:34:19;21.40;38.50
24636;DHT22;12772;49.794;10.024;2023-09-19T19:38:21;21.40;38.70
24636;DHT22;12772;49.794;10.024;2023-09-19T19:42:24;21.30;38.80
24636;DHT22;12772;49.794;10.024;2023-09-19T19:46:26;21.30;39.10
24636;DHT22;12772;49.794;10.024;2023-09-19T19:50:34;21.20;39.30
24636;DHT22;12772;49.794;10.024;2023-09-19T19:54:38;21.10;39.60
24636;DHT22;12772;49.794;10.024;2023-09-19T19:58:41;21.20;39.80
24636;DHT22;12772;49.794;10.024;2023-09-19T20:02:43;21.10;39.90
24636;DHT22;12772;49.794;10.024;2023-09-19T20:06:46;21.10;40.30
24636;DHT22;12772;49.794;10.024;2023-09-19T20:10:50;21.00;40.30
24636;DHT22;12772;49.794;10.024;2023-09-19T20:14:52;21.00;40.50
24636;DHT22;12772;49.794;10.024;2023-09-19T20:18:58;21.00;40.70
24636;DHT22;12772;49.794;10.024;2023-09-19T20:23:01;21.00;40.60
24636;DHT22;12772;49.794;10.024;2023-09-19T20:27:04;21.00;40.80
24636;DHT22;12772;49.794;10.024;2023-09-19T20:31:08;21.00;41.00
24636;DHT22;12772;49.794;10.024;2023-09-19T20:35:11;21.00;41.10
24636;DHT22;12772;49.794;10.024;2023-09-19T20:39:14;21.00;41.20
24636;DHT22;12772;49.794;10.024;2023-09-19T20:43:17;21.00;41.10
24636;DHT22;12772;49.794;10.024;2023-09-19T20:47:19;21.00;41.50
24636;DHT22;12772;49.794;10.024;2023-09-19T20:51:21;20.90;41.50
24636;DHT22;12772;49.794;10.024;2023-09-19T20:55:26;20.90;41.80
24636;DHT22;12772;49.794;10.024;2023-09-19T20:59:28;20.90;41.80
24636;DHT22;12772;49.794;10.024;2023-09-19T21:03:31;20.90;42.20
24636;DHT22;12772;49.794;10.024;2023-09-19T21:07:33;20.80;42.10
24636;DHT22;12772;49.794;10.024;2023-09-19T21:11:36;20.80;42.10
24636;DHT22;12772;49.794;10.024;2023-09-19T21:15:41;20.80;42.10
24636;DHT22;12772;49.794;10.024;2023-09-19T21:19:44;20.70;42.00
24636;DHT22;12772;49.794;10.024;2023-09-19T21:23:46;20.70;42.00
24636;DHT22;12772;49.794;10.024;2023-09-19T21:27:48;20.70;42.00
24636;DHT22;12772;49.794;10.024;2023-09-19T21:31:50;20.70;42.00
24636;DHT22;12772;49.794;10.024;2023-09-19T21:35:52;20.70;42.00
24636;DHT22;12772;49.794;10.024;2023-09-19T21:39:54;20.60;41.90
24636;DHT22;12772;49.794;10.024;2023-09-19T21:43:56;20.60;41.90
24636;DHT22;12772;49.794;10.024;2023-09-19T21:47:58;20.60;41.90
24636;DHT22;12772;49.794;10.024;2023-09-19T21:52:00;20.60;41.90
24636;DHT22;12772;49.794;10.024;2023-09-19T21:56:04;20.60;41.90
24636;DHT22;12772;49.794;10.024;2023-09-19T22:00:07;20.60;42.00
24636;DHT22;12772;49.794;10.024;2023-09-19T22:04:25;20.50;41.80
24636;DHT22;12772;49.794;10.024;2023-09-19T22:08:27;20.50;41.80
24636;DHT22;12772;49.794;10.024;2023-09-19T22:12:29;20.50;41.80
24636;DHT22;12772;49.794;10.024;2023-09-19T22:16:31;20.50;42.10
24636;DHT22;12772;49.794;10.024;2023-09-19T22:20:33;20.50;42.30
24636;DHT22;12772;49.794;10.024;2023-09-19T22:24:45;20.40;42.30
24636;DHT22;12772;49.794;10.024;2023-09-19T22:28:49;20.30;42.40
24636;DHT22;12772;49.794;10.024;2023-09-19T22:32:52;20.30;42.80
24636;DHT22;12772;49.794;10.024;2023-09-19T22:36:54;20.20;42.70
24636;DHT22;12772;49.794;10.024;2023-09-19T22:40:56;20.20;42.90
24636;DHT22;12772;49.794;10.024;2023-09-19T22:45:04;20.10;42.90
24636;DHT22;12772;49.794;10.024;2023-09-19T22:49:09;20.10;43.10
24636;DHT22;12772;49.794;10.024;2023-09-19T22:53:16;20.00;43.40
24636;DHT22;12772;49.794;10.024;2023-09-19T22:57:21;20.00;43.60
24636;DHT22;12772;49.794;10.024;2023-09-19T23:01:23;20.00;43.60
24636;DHT22;12772;49.794;10.024;2023-09-19T23:05:34;19.90;44.40
24636;DHT22;12772;49.794;10.024;2023-09-19T23:09:38;19.90;43.90
24636;DHT22;12772;49.794;10.024;2023-09-19T23:13:40;19.80;44.00
24636;DHT22;12772;49.794;10.024;2023-09-19T23:17:42;19.80;44.10
24636;DHT22;12772;49.794;10.024;2023-09-19T23:21:44;19.80;45.00
24636;DHT22;12772;49.794;10.024;2023-09-19T23:25:52;19.70;44.40
24636;DHT22;12772;49.794;10.024;2023-09-19T23:29:54;19.70;44.70
24636;DHT22;12772;49.794;10.024;2023-09-19T23:33:56;19.60;44.90
24636;DHT22;12772;49.794;10.024;2023-09-19T23:37:58;19.60;45.20
24636;DHT22;12772;49.794;10.024;2023-09-19T23:42:01;19.60;45.40
24636;DHT22;12772;49.794;10.024;2023-09-19T23:46:04;19.60;45.40
24636;DHT22;12772;49.794;10.024;2023-09-19T23:50:06;19.60;45.60
24636;DHT22;12772;49.794;10.024;2023-09-19T23:54:11;19.60;45.70
24636;DHT22;12772;49.794;10.024;2023-09-19T23:58:16;19.60;45.70
